Aérodrome :
LOGIN :

S'inscrire | Disclaimer

   EN    FR    IT 

 










Légende :    VFR   VFR Marginal   IFR   IFR Intensif   IFR Très Intensif
Visi : 
Plafond : 
>= 8 km
>= 3000ft
5 à 8 km
1000 à 3000 ft
1500m à 5 km
500 à 1000 ft
800 à 1500m
200 à 500 ft
< 800m
< 200 ft
Symboles :   Orages  Brouillard  Fortes neiges  Fortes précipitations  Vent > 20 kt
SIGMETs :   Divers  Orages  Givrage  Turbulence  Onde Orograph.  Cendres Volcan.






- Altitude de l'aérodrome : 1966 ft
- Code IATA : SGE


EDGS - Siegerland

DERNIER METAR :
  • 201520Z 16007KT 120V220 9999 FEW034 18/10 Q1011

METARs EXPIRÉS :
  • 201450Z 15005KT 110V200 9999 FEW027 BKN033 16/09 Q1011
  • 201420Z 11005KT 070V150 9999 FEW028 16/10 Q1011
  • 201350Z 15006KT 120V180 9999 FEW023 16/10 Q1011
  • 201320Z 13007KT 100V190 9999 SCT023 16/11 Q1011
  • 201250Z 11005KT 040V150 9999 BKN021 BKN030 17/11 Q1012
  • 201220Z VRB02KT 9999 FEW017 SCT021 15/10 Q1012
  • 201150Z 13004KT 080V170 9999 FEW014 SCT029 15/10 Q1012
  • 201120Z 11006KT 9999 FEW013 SCT017 BKN045 14/10 Q1012
  • 201050Z 12006KT 070V150 9999 FEW013 SCT015 BKN042 15/11 Q1012

TAF TAF EDGS
Valide du 20 à 15h jusqu'au 21 à 00h UTC


201400Z 2015/2024 VRB03KT 9999 SCT025



MET'MAP, la Météo Aéronautique d'un coup d'oeil ! - Copyright ORBIFLY Décembre 2007 - Disclaimer

ORBIFLY MET'MAP TEAM :

Programmation & Développement : Alexandra Zaïnal
Sur une idée originale de : Baudouin d'Aumeries
Soutien technique & logistique : Manuel Goepfert
Assistance : Marc-Olivier Méhu




SOURCES & CREDITS :

   NOAA